»·PEaware :: AAL576 KPDX-KSFO

AAL576 :: KPDX-KSFO

FLIGHT INFORMATION

Flight Status: Arrived
Operator:
American Airlines
More flights by this operator :: More flights under this callsign
Pilot: Anonymous 8274 (8274)
Aircraft: BOEING 727-100
(B721)
More flights by this aircraft type
Origin: KPDX Portland Intl
United States
Destination: KSFO San Francisco Intl
United States
More flights between these airports :: More routes between these airports
Route: PTLD1 BTG J189 LMT J65 RBL GOLDN7
File this flight plan on PilotEdge
Remarks:
Altitude:
(Current/Filed)
33,000ft
Speed:
(Current/Filed)
460kts
Departed: 12-Aug-18 01:25 PM
Arrived: 12-Aug-18 02:55 PM
Distance/Time
Traveled:
478nm/1:30
Distance/Time
To Go:
Arrived

Flight Plot

Page will automatically refresh every two minutes.

Flight plan parsing failed; only flown route is shown


Map Options




Map Legend


Flown Route
Filed Route
Departure Airport
Arrival Airport
Navaid (VOR, NDB)
Fix

Horizontal Profiles

Position Reports

Time Latitude Longitude Heading Altitude Ground
Speed
12-Aug-18 13:08 45.589200 -122.598497 19 41ft 0kts
12-Aug-18 13:09 45.589200 -122.598497 19 41ft 0kts
12-Aug-18 13:10 45.589200 -122.598497 19 41ft 0kts
12-Aug-18 13:11 45.589200 -122.598497 19 41ft 0kts
12-Aug-18 13:12 45.589200 -122.598497 19 41ft 0kts
12-Aug-18 13:13 45.588959 -122.598619 19 41ft 2kts
12-Aug-18 13:14 45.588621 -122.599236 94 40ft 2kts
12-Aug-18 13:15 45.588689 -122.599524 117 40ft 0kts
12-Aug-18 13:16 45.588689 -122.599524 117 40ft 0kts
12-Aug-18 13:17 45.587806 -122.597241 119 40ft 20kts
12-Aug-18 13:18 45.583805 -122.589081 117 40ft 28kts
12-Aug-18 13:19 45.581438 -122.583490 191 40ft 0kts
12-Aug-18 13:20 45.581438 -122.583490 191 40ft 0kts
12-Aug-18 13:21 45.581438 -122.583490 191 40ft 0kts
12-Aug-18 13:22 45.580893 -122.584873 299 40ft 0kts
12-Aug-18 13:23 45.580893 -122.584873 299 40ft 0kts
12-Aug-18 13:24 45.580893 -122.584873 299 40ft 0kts
12-Aug-18 13:25 45.580893 -122.584873 299 40ft 0kts
12-Aug-18 13:26 45.587612 -122.602148 298 155ft 154kts
12-Aug-18 13:27 45.608503 -122.660072 296 3000ft 188kts
12-Aug-18 13:28 45.630764 -122.738554 263 6037ft 255kts
12-Aug-18 13:29 45.573694 -122.794437 194 9726ft 292kts
12-Aug-18 13:30 45.489612 -122.800367 164 12452ft 347kts
12-Aug-18 13:31 45.396216 -122.760138 163 15834ft 363kts
12-Aug-18 13:32 45.297831 -122.715906 163 18380ft 380kts
12-Aug-18 13:33 45.196057 -122.668498 163 20687ft 394kts
12-Aug-18 13:34 45.090641 -122.620443 165 22773ft 404kts
12-Aug-18 13:35 44.984087 -122.570727 165 24957ft 405kts
12-Aug-18 13:36 44.881212 -122.519548 165 26590ft 411kts
12-Aug-18 13:37 44.773469 -122.465101 165 28027ft 419kts
12-Aug-18 13:38 44.663227 -122.408713 165 29326ft 426kts
12-Aug-18 13:39 44.551022 -122.350742 165 30496ft 433kts
12-Aug-18 13:40 44.438101 -122.291932 165 31520ft 439kts
12-Aug-18 13:41 44.323398 -122.231807 165 32412ft 445kts
12-Aug-18 13:42 44.207330 -122.170637 165 33190ft 451kts
12-Aug-18 13:43 44.089129 -122.150298 202 33215ft 425kts
12-Aug-18 13:44 43.976259 -122.200595 202 33194ft 428kts
12-Aug-18 13:45 43.861596 -122.219176 181 33199ft 444kts
12-Aug-18 13:46 43.738881 -122.192448 174 33199ft 452kts
12-Aug-18 13:47 43.615259 -122.156706 173 33201ft 456kts
12-Aug-18 13:48 43.491342 -122.119668 173 33198ft 459kts
12-Aug-18 13:49 43.408038 -122.094720 172 33154ft 461kts
12-Aug-18 13:50 43.283205 -122.057438 172 33135ft 462kts
12-Aug-18 13:51 43.157735 -122.020142 172 33134ft 463kts
12-Aug-18 13:52 43.032334 -121.983020 172 33147ft 463kts
12-Aug-18 13:53 42.906789 -121.946048 172 33166ft 464kts
12-Aug-18 13:54 42.787893 -121.911498 172 33176ft 465kts
12-Aug-18 13:55 42.661223 -121.874517 172 33176ft 467kts
12-Aug-18 13:56 42.534618 -121.837688 172 33175ft 468kts
12-Aug-18 13:57 42.407580 -121.800921 172 33174ft 469kts
12-Aug-18 13:58 42.280254 -121.764247 172 33174ft 469kts
12-Aug-18 13:59 42.153453 -121.724532 170 33172ft 470kts
12-Aug-18 14:00 42.031048 -121.752631 197 33173ft 451kts
12-Aug-18 14:01 41.908838 -121.790432 194 33171ft 454kts
12-Aug-18 14:02 41.791765 -121.821542 194 33177ft 455kts
12-Aug-18 14:03 41.668345 -121.853605 194 33155ft 457kts
12-Aug-18 14:04 41.543612 -121.885792 194 33121ft 459kts
12-Aug-18 14:05 41.418270 -121.917995 194 33111ft 459kts
12-Aug-18 14:06 41.293238 -121.949990 194 33108ft 459kts
12-Aug-18 14:07 41.168103 -121.981889 194 33016ft 461kts
12-Aug-18 14:08 41.041959 -122.013916 193 32950ft 462kts
12-Aug-18 14:09 40.916321 -122.045687 193 32951ft 462kts
12-Aug-18 14:10 40.799549 -122.074587 193 32955ft 463kts
12-Aug-18 14:11 40.678406 -122.105103 193 32954ft 464kts
12-Aug-18 14:12 40.551959 -122.136738 193 32953ft 465kts
12-Aug-18 14:13 40.425279 -122.168300 193 32955ft 465kts
12-Aug-18 14:14 40.297310 -122.184464 182 32960ft 469kts
12-Aug-18 14:15 40.168828 -122.195008 188 32960ft 465kts
12-Aug-18 14:16 40.040515 -122.210936 188 32959ft 466kts
12-Aug-18 14:17 39.919858 -122.259215 202 32961ft 458kts
12-Aug-18 14:18 39.813720 -122.314170 204 32967ft 458kts
12-Aug-18 14:19 39.691925 -122.360895 198 32964ft 460kts
12-Aug-18 14:20 39.569056 -122.404315 198 32967ft 461kts
12-Aug-18 14:21 39.444166 -122.441717 195 32971ft 463kts
12-Aug-18 14:22 39.318637 -122.476292 195 32974ft 463kts
12-Aug-18 14:23 39.192781 -122.510845 195 32986ft 464kts
12-Aug-18 14:24 39.067259 -122.545191 195 32991ft 464kts
12-Aug-18 14:25 38.946989 -122.577985 195 32874ft 413kts
12-Aug-18 14:26 38.854916 -122.603576 195 31375ft 402kts
12-Aug-18 14:27 38.747018 -122.634659 195 29044ft 402kts
12-Aug-18 14:28 38.645012 -122.673220 200 26884ft 397kts
12-Aug-18 14:29 38.542483 -122.719344 200 24859ft 389kts
12-Aug-18 14:30 38.441200 -122.759536 197 22952ft 378kts
12-Aug-18 14:31 38.341697 -122.793458 194 21033ft 368kts
12-Aug-18 14:32 38.259119 -122.814570 191 19385ft 361kts
12-Aug-18 14:33 38.148071 -122.841373 191 15465ft 345kts
12-Aug-18 14:34 38.071769 -122.860339 191 12366ft 333kts
12-Aug-18 14:35 37.998021 -122.808207 127 10986ft 329kts
12-Aug-18 14:36 37.936076 -122.704469 137 10979ft 304kts
12-Aug-18 14:37 37.892046 -122.654199 141 11001ft 277kts
12-Aug-18 14:38 37.826501 -122.588837 147 11037ft 253kts
12-Aug-18 14:39 37.768691 -122.540224 143 11058ft 313kts
12-Aug-18 14:40 37.702129 -122.480996 153 11045ft 270kts
12-Aug-18 14:41 37.630496 -122.433576 153 10398ft 241kts
12-Aug-18 14:42 37.581274 -122.400564 153 8924ft 241kts
12-Aug-18 14:43 37.528621 -122.365029 153 7455ft 236kts
12-Aug-18 14:44 37.474340 -122.324685 125 7021ft 231kts
12-Aug-18 14:45 37.448704 -122.249391 113 6067ft 239kts
12-Aug-18 14:46 37.422524 -122.169133 113 6026ft 244kts
12-Aug-18 14:47 37.406486 -122.093239 62 6070ft 229kts
12-Aug-18 14:48 37.455043 -122.078708 324 4999ft 205kts
12-Aug-18 14:49 37.499316 -122.117797 323 4006ft 173kts
12-Aug-18 14:50 37.527246 -122.158458 300 3466ft 146kts
12-Aug-18 14:51 37.545079 -122.200199 296 2513ft 124kts
12-Aug-18 14:52 37.561238 -122.238477 299 1909ft 124kts
12-Aug-18 14:53 37.577554 -122.276438 298 1474ft 123kts
12-Aug-18 14:54 37.593123 -122.314465 298 947ft 121kts
12-Aug-18 14:55 37.608597 -122.350996 297 174ft 115kts
12-Aug-18 14:56 37.618946 -122.376314 274 24ft 27kts
12-Aug-18 14:57 37.620000 -122.382846 297 24ft 19kts
12-Aug-18 14:58 37.622668 -122.389220 298 24ft 22kts

Navigation Log

Ident Type
Flight plan parsing failed, navigation log unavailable